Terminal Aerodrome Forecast
Issued by NWS

Home | Current Version | Previous Version | Text Only | Print | Product List | Glossary On
Versions: 1 2 3 4 5 6 7 8 9 10 11 12 13 14 15 16
000
FTAK31 PAJN 161525 AAA
TAFAGY
TAF AMD
PAGY 161525Z 1615/1712 21018G28KT 6SM -RA FEW015 OVC040
      TEMPO 1615/1618 21015G25KT 5SM -RA BR SCT015 OVC030
     FM162100 21020G30KT 6SM -SHRA BKN025 OVC035
     FM170000 21015G25KT P6SM VCSH SCT025 OVC035
      AMD LTD TO CLD VIS AND WIND=

USA.gov is the U.S. government's official web portal to all federal, state and local government web resources and services.